createdAt,value
2023-01-04T00:01:08.400Z,14.75
2023-01-04T00:03:35.191Z,13.85
2023-01-04T00:06:04.821Z,13.45
2023-01-04T00:11:07.743Z,15.18
2023-01-04T00:13:34.984Z,14.95
2023-01-04T00:16:10.565Z,10.13
2023-01-04T00:18:39.810Z,14.20
2023-01-04T00:21:11.533Z,15.05
2023-01-04T00:23:39.185Z,13.05
2023-01-04T00:26:14.150Z,15.25
2023-01-04T00:28:40.779Z,14.38
2023-01-04T00:31:10.485Z,13.32
2023-01-04T00:33:37.656Z,13.10
2023-01-04T00:36:06.629Z,14.48
2023-01-04T00:38:34.499Z,17.73
2023-01-04T00:41:01.360Z,15.25
2023-01-04T00:43:27.745Z,18.95
2023-01-04T00:45:54.571Z,15.65
2023-01-04T00:48:21.116Z,18.23
2023-01-04T00:50:48.976Z,16.98
2023-01-04T00:53:17.142Z,18.52
2023-01-04T00:55:43.567Z,19.00
2023-01-04T00:58:10.265Z,21.88
2023-01-04T01:00:36.901Z,18.08
2023-01-04T01:03:03.756Z,18.63
2023-01-04T01:05:30.431Z,22.08
2023-01-04T01:07:56.750Z,22.38
2023-01-04T01:10:23.049Z,20.13
2023-01-04T01:12:49.352Z,20.88
2023-01-04T01:15:15.690Z,22.95
2023-01-04T01:17:42.020Z,24.65
2023-01-04T01:20:08.881Z,24.73
2023-01-04T01:22:36.167Z,28.83
2023-01-04T01:25:02.493Z,24.80
2023-01-04T01:27:28.782Z,23.67
2023-01-04T01:29:55.083Z,23.85
2023-01-04T01:32:21.406Z,21.65
2023-01-04T01:34:47.697Z,21.65
2023-01-04T01:37:14.014Z,24.13
2023-01-04T01:39:40.338Z,21.13
2023-01-04T01:42:06.676Z,23.73
2023-01-04T01:44:42.086Z,25.02
2023-01-04T01:47:38.231Z,22.58
2023-01-04T01:50:06.322Z,20.95
2023-01-04T01:52:37.468Z,20.58
2023-01-04T01:55:08.673Z,21.75
2023-01-04T01:57:37.658Z,20.10
2023-01-04T02:00:12.671Z,20.40
2023-01-04T02:02:48.440Z,22.70
2023-01-04T02:05:15.331Z,22.55
2023-01-04T02:07:42.274Z,22.67
2023-01-04T02:10:09.123Z,18.17
2023-01-04T02:12:35.441Z,19.40
2023-01-04T02:15:01.938Z,23.38
2023-01-04T02:17:53.699Z,24.00
2023-01-04T02:20:37.709Z,21.70
2023-01-04T02:23:38.377Z,19.30
2023-01-04T02:26:39.974Z,24.15
2023-01-04T02:29:33.027Z,19.73
2023-01-04T02:32:09.173Z,23.02
2023-01-04T02:35:00.187Z,22.35
2023-01-04T02:37:45.846Z,21.10
2023-01-04T02:40:29.578Z,23.52
2023-01-04T02:43:27.548Z,20.98
2023-01-04T02:46:04.661Z,25.00
2023-01-04T02:48:57.312Z,20.20
2023-01-04T02:51:32.969Z,22.52
2023-01-04T02:54:04.563Z,22.75
2023-01-04T02:56:41.737Z,25.60
2023-01-04T02:59:29.278Z,23.38
2023-01-04T03:02:35.053Z,24.88
2023-01-04T03:06:02.338Z,25.75
2023-01-04T03:08:36.540Z,27.85
2023-01-04T03:11:30.272Z,24.80
2023-01-04T03:14:30.734Z,22.98
2023-01-04T03:16:55.670Z,24.73
2023-01-04T03:19:43.315Z,26.42
2023-01-04T03:22:32.962Z,21.92
2023-01-04T03:25:19.931Z,22.55
2023-01-04T03:28:09.217Z,23.20
2023-01-04T03:31:05.109Z,20.27
2023-01-04T03:33:51.051Z,23.38
2023-01-04T03:36:28.952Z,22.60
2023-01-04T03:39:42.119Z,22.58
2023-01-04T03:42:37.338Z,22.20
2023-01-04T03:45:49.529Z,20.85
2023-01-04T03:48:31.305Z,23.08
2023-01-04T03:51:05.432Z,19.48
2023-01-04T03:53:37.849Z,19.95
2023-01-04T03:56:06.090Z,21.23
2023-01-04T03:58:32.514Z,20.60
2023-01-04T04:01:03.766Z,18.55
2023-01-04T04:03:50.028Z,17.50
2023-01-04T04:06:35.340Z,18.10
2023-01-04T04:09:02.373Z,17.73
2023-01-04T04:11:31.600Z,14.10
2023-01-04T04:13:59.486Z,18.52
2023-01-04T04:16:27.450Z,15.60
2023-01-04T04:18:54.154Z,15.23
2023-01-04T04:21:20.482Z,13.25
2023-01-04T04:23:46.884Z,14.30
2023-01-04T04:26:13.469Z,13.50
2023-01-04T04:28:39.738Z,14.43
2023-01-04T04:31:06.598Z,14.70
2023-01-04T04:33:32.912Z,13.73
2023-01-04T04:35:59.250Z,13.82
2023-01-04T04:38:25.568Z,12.75
2023-01-04T04:41:10.231Z,16.35
2023-01-04T04:43:36.585Z,14.27
2023-01-04T04:46:03.165Z,14.05
2023-01-04T04:48:29.539Z,15.45
2023-01-04T04:50:55.859Z,14.05
2023-01-04T04:53:22.187Z,13.88
2023-01-04T04:55:51.804Z,14.23
2023-01-04T04:58:18.629Z,12.05
2023-01-04T05:00:45.029Z,18.02
2023-01-04T05:03:11.505Z,15.45
2023-01-04T05:05:37.898Z,19.10
2023-01-04T05:08:04.394Z,19.63
2023-01-04T05:10:30.702Z,18.90
2023-01-04T05:13:00.147Z,21.90
2023-01-04T05:17:53.885Z,24.35
2023-01-04T05:20:20.483Z,22.83
2023-01-04T05:22:46.821Z,26.35
2023-01-04T05:25:13.216Z,24.38
2023-01-04T05:27:40.348Z,25.42
2023-01-04T05:30:25.426Z,25.30
2023-01-04T05:32:51.950Z,28.25
2023-01-04T05:35:18.256Z,24.98
2023-01-04T05:37:44.554Z,28.65
2023-01-04T05:40:11.193Z,26.50
2023-01-04T05:42:37.537Z,28.42
2023-01-04T05:45:04.285Z,26.48
2023-01-04T05:47:30.678Z,28.40
2023-01-04T05:49:57.041Z,27.48
2023-01-04T05:52:23.409Z,26.05
2023-01-04T05:54:51.352Z,28.20
2023-01-04T05:57:20.956Z,27.25
2023-01-04T05:59:47.299Z,25.15
2023-01-04T06:02:20.707Z,24.85
2023-01-04T06:04:51.519Z,24.38
2023-01-04T06:07:21.861Z,23.80
2023-01-04T06:09:48.314Z,23.95
2023-01-04T06:12:14.740Z,21.98
2023-01-04T06:14:41.442Z,26.20
2023-01-04T06:17:08.267Z,23.05
2023-01-04T06:19:34.852Z,21.83
2023-01-04T06:22:01.437Z,24.75
2023-01-04T06:24:27.998Z,27.15
2023-01-04T06:26:54.404Z,24.35
2023-01-04T06:29:20.735Z,20.73
2023-01-04T06:31:47.098Z,23.10
2023-01-04T06:34:14.707Z,19.08
2023-01-04T06:36:44.361Z,20.42
2023-01-04T06:39:10.807Z,22.80
2023-01-04T06:41:37.272Z,19.15
2023-01-04T06:44:04.180Z,20.00
2023-01-04T06:46:30.639Z,18.15
2023-01-04T06:48:58.054Z,19.48
2023-01-04T06:51:24.732Z,19.10
2023-01-04T06:53:51.198Z,21.27
2023-01-04T06:56:17.504Z,17.45
2023-01-04T06:58:43.872Z,18.15
2023-01-04T07:01:10.337Z,17.25
2023-01-04T07:03:36.779Z,16.33
2023-01-04T07:06:07.296Z,16.92
2023-01-04T07:08:34.717Z,19.25
2023-01-04T07:11:01.206Z,16.73
2023-01-04T07:13:27.576Z,16.02
2023-01-04T07:15:54.047Z,227.77
2023-01-04T07:18:20.550Z,89.43
2023-01-04T07:20:46.879Z,51.63
2023-01-04T07:23:13.181Z,70.53
2023-01-04T07:25:39.513Z,21.65
2023-01-04T07:28:05.995Z,35.95
2023-01-04T07:30:32.415Z,16.05
2023-01-04T07:32:58.792Z,13.98
2023-01-04T07:35:25.666Z,13.45
2023-01-04T07:37:57.913Z,13.05
2023-01-04T07:40:25.680Z,11.30
2023-01-04T07:42:57.220Z,12.18
2023-01-04T07:45:24.098Z,10.00
2023-01-04T07:47:50.631Z,10.35
2023-01-04T07:50:17.049Z,9.45
2023-01-04T07:52:43.357Z,8.02
2023-01-04T07:55:12.333Z,13.00
2023-01-04T07:57:38.683Z,8.48
2023-01-04T08:00:06.723Z,8.98
2023-01-04T08:02:33.159Z,8.07
2023-01-04T08:05:03.126Z,8.55
2023-01-04T08:07:29.950Z,8.18
2023-01-04T08:09:56.262Z,8.60
2023-01-04T08:12:22.577Z,8.95
2023-01-04T08:14:49.485Z,7.57
2023-01-04T08:17:15.783Z,5.85
2023-01-04T08:19:45.900Z,7.80
2023-01-04T08:22:13.555Z,9.60
2023-01-04T08:24:39.957Z,6.57
2023-01-04T08:27:07.834Z,7.50
2023-01-04T08:29:35.521Z,6.35
2023-01-04T08:32:02.698Z,5.95
2023-01-04T08:34:29.749Z,6.95
2023-01-04T08:36:56.485Z,7.00
2023-01-04T08:39:22.817Z,10.07
2023-01-04T08:41:58.893Z,5.88
2023-01-04T08:44:27.987Z,4.68
2023-01-04T08:46:55.191Z,6.75
2023-01-04T08:49:22.975Z,4.45
2023-01-04T08:51:49.734Z,4.93
2023-01-04T08:54:16.572Z,5.88
2023-01-04T08:56:43.473Z,4.20
2023-01-04T08:59:11.130Z,28.08
2023-01-04T09:01:39.387Z,11.50
2023-01-04T09:04:05.986Z,6.45
2023-01-04T09:06:32.498Z,5.10
2023-01-04T09:08:59.384Z,4.03
2023-01-04T09:11:26.582Z,4.13
2023-01-04T09:14:06.893Z,4.07
2023-01-04T09:16:35.201Z,5.43
2023-01-04T09:19:01.791Z,3.47
2023-01-04T09:21:28.767Z,4.03
2023-01-04T09:23:57.088Z,2.58
2023-01-04T09:26:23.931Z,4.30
2023-01-04T09:28:52.643Z,4.55
2023-01-04T09:31:22.184Z,3.22
2023-01-04T09:34:13.461Z,3.28
2023-01-04T09:36:37.037Z,4.10
2023-01-04T09:39:03.850Z,3.35
2023-01-04T09:41:39.958Z,4.95
2023-01-04T09:44:09.343Z,4.18
2023-01-04T09:49:43.543Z,3.15
2023-01-04T09:52:09.868Z,3.13
2023-01-04T09:55:04.854Z,2.72
2023-01-04T09:58:03.928Z,4.45
2023-01-04T10:00:40.202Z,3.22
2023-01-04T10:03:24.220Z,6.05
2023-01-04T10:05:52.775Z,4.72
2023-01-04T10:08:20.279Z,3.17
2023-01-04T10:10:51.812Z,3.85
2023-01-04T10:13:39.778Z,3.95
2023-01-04T10:17:10.436Z,5.00
2023-01-04T10:22:34.182Z,3.00
2023-01-04T10:25:22.222Z,3.25
2023-01-04T10:28:04.354Z,2.28
2023-01-04T10:31:39.830Z,4.20
2023-01-04T10:34:20.209Z,2.97
2023-01-04T10:36:47.984Z,4.18
2023-01-04T10:39:22.612Z,2.20
2023-01-04T10:42:07.641Z,3.00
2023-01-04T10:44:57.301Z,2.85
2023-01-04T10:47:52.280Z,2.85
2023-01-04T10:50:26.201Z,4.15
2023-01-04T10:53:17.444Z,3.92
2023-01-04T10:56:23.524Z,2.35
2023-01-04T10:58:45.530Z,4.45
2023-01-04T11:01:37.725Z,5.43
2023-01-04T11:04:32.231Z,3.05
2023-01-04T11:07:15.925Z,3.42
2023-01-04T11:10:01.239Z,3.80
2023-01-04T11:12:31.782Z,2.88
2023-01-04T11:14:58.273Z,3.85
2023-01-04T11:17:25.155Z,3.28
2023-01-04T11:19:52.547Z,2.83
2023-01-04T11:22:46.481Z,4.20
2023-01-04T11:25:35.774Z,2.53
2023-01-04T11:28:12.544Z,3.88
2023-01-04T11:30:58.686Z,2.83
2023-01-04T11:33:25.632Z,2.30
2023-01-04T11:35:55.617Z,3.95
2023-01-04T11:38:24.645Z,5.75
2023-01-04T11:41:00.352Z,3.17
2023-01-04T11:43:29.650Z,3.47
2023-01-04T11:48:34.890Z,2.30
2023-01-04T11:51:02.298Z,3.25
2023-01-04T11:53:39.325Z,2.40
2023-01-04T11:56:26.316Z,2.40
2023-01-04T11:59:22.638Z,2.28
2023-01-04T12:01:55.089Z,4.28
2023-01-04T12:04:25.465Z,4.72
2023-01-04T12:06:53.504Z,3.08
2023-01-04T12:09:21.779Z,2.20
2023-01-04T12:11:54.365Z,1.52
2023-01-04T12:14:32.253Z,2.60
2023-01-04T12:17:10.254Z,3.53
2023-01-04T12:19:38.353Z,2.33
2023-01-04T12:22:19.595Z,2.95
2023-01-04T12:24:46.591Z,2.90
2023-01-04T12:27:14.508Z,2.20
2023-01-04T12:29:44.644Z,2.00
2023-01-04T12:32:14.048Z,3.08
2023-01-04T12:34:43.562Z,2.67
2023-01-04T12:37:11.803Z,3.55
2023-01-04T12:39:44.381Z,3.13
2023-01-04T12:42:13.380Z,2.00
2023-01-04T12:44:40.488Z,3.53
2023-01-04T12:47:34.543Z,2.63
2023-01-04T12:50:07.879Z,2.20
2023-01-04T12:52:43.051Z,2.95
2023-01-04T12:55:32.385Z,2.33
2023-01-04T12:58:04.510Z,1.95
2023-01-04T13:00:49.742Z,3.17
2023-01-04T13:03:23.414Z,4.15
2023-01-04T13:06:02.201Z,2.78
2023-01-04T13:08:33.282Z,3.25
2023-01-04T13:11:03.502Z,30.33
2023-01-04T13:13:49.349Z,21.33
2023-01-04T13:16:23.254Z,2.97
2023-01-04T13:18:56.378Z,4.78
2023-01-04T13:21:40.999Z,1.55
2023-01-04T13:24:26.819Z,1.67
2023-01-04T13:26:54.026Z,1.80
2023-01-04T13:29:27.818Z,1.70
2023-01-04T13:32:00.323Z,2.08
2023-01-04T13:34:37.505Z,2.90
2023-01-04T13:37:15.143Z,2.10
2023-01-04T13:39:44.526Z,3.85
2023-01-04T13:45:19.102Z,3.03
2023-01-04T13:47:48.859Z,2.42
2023-01-04T13:50:36.874Z,3.13
2023-01-04T13:53:08.052Z,2.45
2023-01-04T13:55:38.768Z,3.45
2023-01-04T13:58:17.956Z,2.60
2023-01-04T14:00:48.318Z,3.78
2023-01-04T14:03:31.570Z,3.17
2023-01-04T14:06:10.162Z,2.63
2023-01-04T14:08:41.239Z,2.45
2023-01-04T14:11:46.055Z,3.22
2023-01-04T14:14:22.055Z,2.92
2023-01-04T14:16:49.634Z,1.55
2023-01-04T14:19:41.811Z,2.05
2023-01-04T14:22:23.214Z,2.35
2023-01-04T14:25:09.028Z,3.70
2023-01-04T14:27:42.370Z,3.42
2023-01-04T14:30:19.419Z,2.50
2023-01-04T14:33:02.899Z,2.28
2023-01-04T14:35:30.035Z,2.83
2023-01-04T14:38:06.429Z,2.28
2023-01-04T14:40:33.689Z,2.10
2023-01-04T14:43:00.116Z,2.63
2023-01-04T14:45:26.613Z,2.15
2023-01-04T14:47:52.981Z,1.58
2023-01-04T14:50:19.375Z,2.38
2023-01-04T14:52:53.210Z,1.45
2023-01-04T14:55:20.035Z,1.63
2023-01-04T14:57:46.433Z,1.77
2023-01-04T15:00:19.584Z,1.90
2023-01-04T15:02:50.192Z,1.70
2023-01-04T15:05:20.799Z,2.13
2023-01-04T15:07:47.523Z,1.98
2023-01-04T15:10:26.450Z,1.52
2023-01-04T15:12:53.492Z,2.30
2023-01-04T15:15:20.122Z,2.10
2023-01-04T15:17:47.212Z,2.00
2023-01-04T15:20:13.640Z,1.50
2023-01-04T15:22:40.890Z,2.05
2023-01-04T15:25:07.704Z,1.95
2023-01-04T15:27:40.014Z,3.35
2023-01-04T15:30:11.131Z,2.33
2023-01-04T15:32:37.465Z,2.20
2023-01-04T15:35:04.227Z,1.85
2023-01-04T15:37:30.765Z,1.40
2023-01-04T15:40:02.294Z,1.40
2023-01-04T15:43:08.673Z,2.05
2023-01-04T15:45:37.170Z,2.28
2023-01-04T15:48:04.916Z,2.53
2023-01-04T15:50:34.950Z,1.65
2023-01-04T15:53:01.603Z,1.90
2023-01-04T15:55:36.139Z,1.90
2023-01-04T15:58:07.067Z,1.90
2023-01-04T16:00:33.371Z,1.50
2023-01-04T16:02:59.869Z,2.63
2023-01-04T16:05:26.233Z,3.28
2023-01-04T16:07:52.745Z,1.50
2023-01-04T16:10:19.259Z,2.53
2023-01-04T16:12:49.933Z,2.00
2023-01-04T16:15:21.701Z,2.67
2023-01-04T16:17:48.420Z,1.52
2023-01-04T16:20:17.499Z,2.35
2023-01-04T16:22:43.881Z,1.20
2023-01-04T16:25:12.213Z,1.77
2023-01-04T16:27:39.697Z,3.97
2023-01-04T16:30:10.662Z,2.45
2023-01-04T16:32:39.949Z,2.13
2023-01-04T16:37:32.549Z,2.08
2023-01-04T16:40:07.362Z,1.58
2023-01-04T16:45:01.992Z,1.63
2023-01-04T16:47:28.283Z,2.65
2023-01-04T16:49:54.749Z,1.63
2023-01-04T16:52:21.520Z,1.60
2023-01-04T16:54:48.606Z,1.52
2023-01-04T16:57:14.952Z,1.50
2023-01-04T16:59:41.364Z,2.20
2023-01-04T17:02:11.099Z,1.75
2023-01-04T17:04:40.581Z,1.40
2023-01-04T17:07:06.963Z,4.50
2023-01-04T17:09:35.113Z,1.65
2023-01-04T17:12:45.034Z,2.00
2023-01-04T17:15:00.886Z,1.63
2023-01-04T17:17:34.639Z,2.03
2023-01-04T17:20:01.017Z,1.88
2023-01-04T17:22:33.900Z,2.20
2023-01-04T17:25:00.712Z,1.92
2023-01-04T17:27:27.014Z,1.50
2023-01-04T17:29:53.313Z,2.20
2023-01-04T17:32:19.715Z,3.25
2023-01-04T17:34:46.015Z,1.95
2023-01-04T17:37:13.302Z,2.25
2023-01-04T17:39:39.649Z,2.65
2023-01-04T17:42:05.988Z,2.42
2023-01-04T17:44:32.305Z,2.30
2023-01-04T17:46:58.618Z,2.50
2023-01-04T17:49:31.258Z,5.18
2023-01-04T17:51:58.280Z,2.00
2023-01-04T17:54:25.509Z,1.85
2023-01-04T17:56:51.859Z,2.33
2023-01-04T17:59:20.200Z,2.08
2023-01-04T18:01:47.402Z,2.47
2023-01-04T18:04:13.996Z,1.92
2023-01-04T18:06:40.531Z,2.97
2023-01-04T18:09:07.809Z,2.97
2023-01-04T18:11:35.095Z,2.30
2023-01-04T18:14:04.252Z,2.22
2023-01-04T18:16:54.374Z,2.15
2023-01-04T18:19:20.667Z,2.00
2023-01-04T18:21:47.050Z,2.05
2023-01-04T18:24:35.468Z,1.83
2023-01-04T18:27:21.029Z,2.05
2023-01-04T18:29:47.641Z,2.00
2023-01-04T18:32:13.943Z,2.25
2023-01-04T18:34:40.299Z,2.17
2023-01-04T18:37:06.576Z,1.83
2023-01-04T18:39:32.963Z,2.30
2023-01-04T18:41:59.259Z,2.15
2023-01-04T18:44:34.384Z,2.85
2023-01-04T18:47:01.095Z,3.47
2023-01-04T18:49:27.391Z,1.88
2023-01-04T18:51:53.669Z,2.67
2023-01-04T18:54:21.295Z,2.33
2023-01-04T18:56:47.754Z,2.45
2023-01-04T18:59:18.731Z,2.75
2023-01-04T19:01:45.499Z,2.40
2023-01-04T19:04:12.738Z,1.98
2023-01-04T19:06:40.413Z,2.53
2023-01-04T19:09:07.436Z,1.90
2023-01-04T19:11:35.062Z,3.00
2023-01-04T19:14:02.488Z,3.15
2023-01-04T19:16:32.032Z,2.50
2023-01-04T19:18:59.974Z,2.28
2023-01-04T19:21:26.896Z,2.47
2023-01-04T19:23:53.423Z,2.40
2023-01-04T19:26:20.539Z,2.50
2023-01-04T19:28:47.117Z,2.63
2023-01-04T19:31:14.409Z,2.80
2023-01-04T19:33:41.112Z,2.72
2023-01-04T19:36:09.541Z,2.35
2023-01-04T19:38:36.639Z,2.97
2023-01-04T19:41:04.090Z,2.05
2023-01-04T19:43:30.502Z,2.00
2023-01-04T19:45:56.898Z,2.08
2023-01-04T19:48:24.276Z,1.92
2023-01-04T19:51:06.742Z,2.78
2023-01-04T19:53:33.214Z,2.80
2023-01-04T19:55:59.593Z,1.95
2023-01-04T19:58:25.879Z,2.88
2023-01-04T20:00:54.838Z,2.20
2023-01-04T20:05:56.181Z,2.10
2023-01-04T20:08:22.551Z,2.35
2023-01-04T20:10:55.982Z,2.58
2023-01-04T20:13:22.500Z,2.60
2023-01-04T20:15:48.881Z,2.13
2023-01-04T20:18:15.201Z,2.15
2023-01-04T20:20:45.449Z,1.90
2023-01-04T20:23:13.004Z,2.33
2023-01-04T20:25:40.556Z,2.05
2023-01-04T20:28:07.043Z,2.47
2023-01-04T20:30:33.544Z,2.53
2023-01-04T20:33:00.027Z,2.50
2023-01-04T20:35:26.405Z,1.70
2023-01-04T20:37:56.397Z,2.55
2023-01-04T20:40:25.186Z,2.38
2023-01-04T20:43:10.214Z,1.88
2023-01-04T20:45:44.189Z,1.92
2023-01-04T20:48:11.107Z,2.15
2023-01-04T20:50:38.944Z,1.92
2023-01-04T20:53:06.181Z,1.63
2023-01-04T20:55:37.535Z,1.92
2023-01-04T20:58:05.192Z,1.85
2023-01-04T21:00:31.673Z,2.30
2023-01-04T21:02:58.111Z,2.28
2023-01-04T21:05:24.596Z,1.38
2023-01-04T21:07:50.951Z,1.40
2023-01-04T21:10:17.342Z,1.30
2023-01-04T21:12:43.620Z,3.20
2023-01-04T21:15:10.172Z,1.73
2023-01-04T21:17:36.969Z,1.63
2023-01-04T21:20:03.998Z,1.77
2023-01-04T21:22:30.333Z,1.10
2023-01-04T21:24:56.620Z,1.40
2023-01-04T21:27:23.300Z,1.23
2023-01-04T21:29:50.798Z,1.10
2023-01-04T21:32:17.182Z,1.42
2023-01-04T21:34:43.512Z,1.00
2023-01-04T21:37:09.856Z,1.20
2023-01-04T21:39:36.294Z,1.45
2023-01-04T21:42:02.704Z,1.48
2023-01-04T21:44:29.103Z,1.00
2023-01-04T21:46:55.486Z,1.85
2023-01-04T21:49:21.921Z,1.25
2023-01-04T21:51:48.202Z,1.77
2023-01-04T21:54:14.540Z,1.27
2023-01-04T21:56:41.311Z,2.70
2023-01-04T21:59:07.645Z,1.60
2023-01-04T22:01:35.472Z,1.08
2023-01-04T22:04:03.015Z,1.00
2023-01-04T22:06:29.631Z,1.23
2023-01-04T22:08:56.049Z,1.52
2023-01-04T22:11:22.467Z,2.05
2023-01-04T22:13:50.232Z,1.10
2023-01-04T22:16:18.944Z,2.25
2023-01-04T22:18:47.357Z,2.15
2023-01-04T22:21:17.853Z,1.27
2023-01-04T22:23:44.214Z,1.92
2023-01-04T22:26:10.621Z,2.05
2023-01-04T22:28:37.556Z,0.95
2023-01-04T22:31:10.577Z,2.05
2023-01-04T22:33:38.507Z,1.63
2023-01-04T22:36:21.083Z,1.27
2023-01-04T22:38:49.448Z,1.30
2023-01-04T22:41:18.769Z,1.42
2023-01-04T22:43:45.262Z,2.17
2023-01-04T22:46:17.561Z,1.55
2023-01-04T22:48:45.393Z,1.50
2023-01-04T22:51:14.433Z,1.58
2023-01-04T22:53:41.287Z,1.27
2023-01-04T22:56:18.806Z,1.45
2023-01-04T22:58:52.472Z,2.00
2023-01-04T23:01:20.622Z,1.88
2023-01-04T23:03:47.105Z,1.38
2023-01-04T23:06:13.869Z,1.88
2023-01-04T23:08:40.777Z,1.98
2023-01-04T23:11:14.124Z,1.10
2023-01-04T23:13:41.366Z,1.23
2023-01-04T23:16:10.731Z,1.15
2023-01-04T23:18:37.227Z,1.00
2023-01-04T23:21:06.105Z,1.58
2023-01-04T23:23:33.047Z,1.65
2023-01-04T23:26:07.825Z,1.52
2023-01-04T23:28:37.877Z,1.65
2023-01-04T23:31:06.441Z,1.48
2023-01-04T23:33:36.513Z,1.73
2023-01-04T23:36:30.966Z,1.85
2023-01-04T23:38:59.684Z,1.30
2023-01-04T23:41:45.416Z,1.38
2023-01-04T23:47:00.732Z,1.10
2023-01-04T23:49:29.186Z,1.10
2023-01-04T23:51:56.340Z,1.42
2023-01-04T23:54:22.912Z,1.05
2023-01-04T23:56:49.399Z,1.58
2023-01-04T23:59:15.871Z,0.82
